NDF6CW EDDH-LSZH
Flight info
| Callsign | NDF6CW |
|---|---|
| Flight time | N/A |
| Altitude | 33000 |
| Route | IDEKO8B/23 IDEKO N850 ROBEG DCT SWALM DCT OMOGI T721 RILAX RILAX2A |
| Aircraft | B38M/M-SDE1FGHILORVWXY/HB1 |
Departure
| Time | N/A |
|---|---|
| Airport | Hamburg Helmut Schmidt Airport (EDDH) |
Arrival
| Time | 2026-05-03 21:06 |
|---|---|
| Airport | Zürich Airport (LSZH) |
| Time | Latitude | Longitude | Altitude | Speed | Heading |
|---|---|---|---|---|---|
| 2026-05-03 20:15 | 51.82836 | 9.25208 | 32934 ft | 406 kts | 184° |
| 2026-05-03 20:15 | 51.77191 | 9.24966 | 32941 ft | 405 kts | 184° |
| 2026-05-03 20:16 | 51.71568 | 9.24726 | 32943 ft | 405 kts | 184° |
| 2026-05-03 20:16 | 51.65926 | 9.24485 | 32935 ft | 405 kts | 184° |
| 2026-05-03 20:17 | 51.60283 | 9.24245 | 32944 ft | 405 kts | 184° |
| 2026-05-03 20:17 | 51.54634 | 9.24005 | 32942 ft | 405 kts | 184° |
| 2026-05-03 20:18 | 51.49032 | 9.23768 | 32946 ft | 405 kts | 184° |
| 2026-05-03 20:18 | 51.43408 | 9.23531 | 32939 ft | 405 kts | 184° |
| 2026-05-03 20:19 | 51.37769 | 9.23293 | 32953 ft | 404 kts | 184° |
| 2026-05-03 20:19 | 51.32136 | 9.23057 | 32959 ft | 404 kts | 184° |
| 2026-05-03 20:20 | 51.26497 | 9.22821 | 32963 ft | 404 kts | 184° |
| 2026-05-03 20:20 | 51.20921 | 9.22588 | 32953 ft | 405 kts | 184° |
| 2026-05-03 20:21 | 51.15278 | 9.22352 | 32963 ft | 405 kts | 184° |
| 2026-05-03 20:21 | 51.09641 | 9.22118 | 32962 ft | 405 kts | 184° |
| 2026-05-03 20:22 | 51.03994 | 9.21884 | 32964 ft | 405 kts | 184° |
| 2026-05-03 20:22 | 50.98399 | 9.21652 | 32967 ft | 405 kts | 184° |
| 2026-05-03 20:23 | 50.92764 | 9.21420 | 32960 ft | 406 kts | 184° |
| 2026-05-03 20:23 | 50.87093 | 9.21186 | 32964 ft | 407 kts | 184° |
| 2026-05-03 20:24 | 50.81430 | 9.20953 | 32961 ft | 406 kts | 184° |
| 2026-05-03 20:24 | 50.75775 | 9.20721 | 32961 ft | 406 kts | 184° |
| 2026-05-03 20:25 | 50.70164 | 9.20134 | 32967 ft | 403 kts | 191° |
| 2026-05-03 20:25 | 50.64634 | 9.18881 | 32972 ft | 405 kts | 189° |
| 2026-05-03 20:26 | 50.59052 | 9.17717 | 32969 ft | 404 kts | 189° |
| 2026-05-03 20:26 | 50.53469 | 9.16572 | 32967 ft | 404 kts | 189° |
| 2026-05-03 20:27 | 50.47870 | 9.15428 | 32972 ft | 406 kts | 189° |
| 2026-05-03 20:27 | 50.42278 | 9.14288 | 32975 ft | 406 kts | 189° |
| 2026-05-03 20:28 | 50.36657 | 9.13144 | 32975 ft | 406 kts | 189° |
| 2026-05-03 20:28 | 50.31090 | 9.12015 | 32978 ft | 406 kts | 189° |
| 2026-05-03 20:29 | 50.25476 | 9.10879 | 32976 ft | 406 kts | 189° |
| 2026-05-03 20:29 | 50.19925 | 9.09757 | 32981 ft | 406 kts | 189° |
| 2026-05-03 20:30 | 50.14321 | 9.08628 | 32977 ft | 406 kts | 189° |
| 2026-05-03 20:30 | 50.08722 | 9.07503 | 32989 ft | 406 kts | 189° |
| 2026-05-03 20:31 | 50.03118 | 9.06379 | 32995 ft | 406 kts | 189° |
| 2026-05-03 20:31 | 49.97552 | 9.05265 | 32992 ft | 406 kts | 189° |
| 2026-05-03 20:32 | 49.91938 | 9.04145 | 32990 ft | 406 kts | 189° |
| 2026-05-03 20:32 | 49.86326 | 9.03027 | 32990 ft | 406 kts | 189° |
| 2026-05-03 20:33 | 49.80717 | 9.01913 | 32995 ft | 407 kts | 189° |
| 2026-05-03 20:33 | 49.75085 | 9.00797 | 32995 ft | 408 kts | 189° |
| 2026-05-03 20:34 | 49.69456 | 8.99683 | 32998 ft | 408 kts | 189° |
| 2026-05-03 20:34 | 49.63853 | 8.98373 | 33003 ft | 407 kts | 192° |
| 2026-05-03 20:35 | 49.58303 | 8.96827 | 33000 ft | 408 kts | 192° |
| 2026-05-03 20:35 | 49.52712 | 8.95300 | 33009 ft | 408 kts | 192° |
| 2026-05-03 20:36 | 49.47124 | 8.93781 | 33008 ft | 408 kts | 192° |
| 2026-05-03 20:36 | 49.41530 | 8.92264 | 33007 ft | 408 kts | 192° |
| 2026-05-03 20:37 | 49.35928 | 8.90747 | 33010 ft | 408 kts | 192° |
| 2026-05-03 20:37 | 49.30336 | 8.89238 | 33007 ft | 408 kts | 192° |
| 2026-05-03 20:38 | 49.24738 | 8.87731 | 33010 ft | 408 kts | 192° |
| 2026-05-03 20:38 | 49.19189 | 8.86231 | 33004 ft | 408 kts | 192° |
| 2026-05-03 20:39 | 49.13592 | 8.84701 | 33003 ft | 410 kts | 192° |
| 2026-05-03 20:39 | 49.07973 | 8.83171 | 33010 ft | 410 kts | 192° |
| 2026-05-03 20:40 | 49.02347 | 8.81642 | 33009 ft | 410 kts | 192° |
| 2026-05-03 20:40 | 48.97684 | 8.80378 | 33009 ft | 411 kts | 192° |
| 2026-05-03 20:41 | 48.92056 | 8.78855 | 33004 ft | 406 kts | 192° |
| 2026-05-03 20:41 | 48.89331 | 8.78119 | 32995 ft | 390 kts | 192° |
| 2026-05-03 20:41 | 48.86695 | 8.77410 | 32751 ft | 380 kts | 192° |
| 2026-05-03 20:41 | 48.84096 | 8.76712 | 32287 ft | 377 kts | 192° |
| 2026-05-03 20:42 | 48.81521 | 8.76020 | 31806 ft | 375 kts | 192° |
| 2026-05-03 20:42 | 48.78957 | 8.75332 | 31341 ft | 372 kts | 192° |
| 2026-05-03 20:42 | 48.76448 | 8.74660 | 30895 ft | 370 kts | 192° |
| 2026-05-03 20:42 | 48.73928 | 8.73986 | 30437 ft | 368 kts | 192° |
| 2026-05-03 20:43 | 48.71406 | 8.73311 | 29973 ft | 366 kts | 192° |
| 2026-05-03 20:43 | 48.68900 | 8.72641 | 29463 ft | 364 kts | 192° |
| 2026-05-03 20:43 | 48.66417 | 8.71978 | 29017 ft | 360 kts | 192° |
| 2026-05-03 20:43 | 48.63954 | 8.71322 | 28595 ft | 357 kts | 192° |
| 2026-05-03 20:44 | 48.61522 | 8.70674 | 28182 ft | 353 kts | 192° |
| 2026-05-03 20:44 | 48.59111 | 8.70033 | 27768 ft | 350 kts | 192° |
| 2026-05-03 20:44 | 48.56713 | 8.69395 | 27374 ft | 348 kts | 192° |
| 2026-05-03 20:44 | 48.54371 | 8.68773 | 26975 ft | 345 kts | 192° |
| 2026-05-03 20:45 | 48.52017 | 8.68148 | 26587 ft | 343 kts | 192° |
| 2026-05-03 20:45 | 48.49683 | 8.67530 | 26207 ft | 340 kts | 192° |
| 2026-05-03 20:45 | 48.47363 | 8.66915 | 25829 ft | 338 kts | 192° |
| 2026-05-03 20:45 | 48.45049 | 8.66303 | 25455 ft | 336 kts | 192° |
| 2026-05-03 20:46 | 48.42756 | 8.65697 | 25088 ft | 334 kts | 192° |
| 2026-05-03 20:46 | 48.40469 | 8.65093 | 24728 ft | 332 kts | 192° |
| 2026-05-03 20:46 | 48.38201 | 8.64476 | 24357 ft | 330 kts | 193° |
| 2026-05-03 20:46 | 48.35971 | 8.63796 | 23954 ft | 330 kts | 193° |
| 2026-05-03 20:47 | 48.33728 | 8.63118 | 23611 ft | 328 kts | 193° |
| 2026-05-03 20:47 | 48.31500 | 8.62448 | 23207 ft | 326 kts | 193° |
| 2026-05-03 20:47 | 48.29281 | 8.61781 | 22840 ft | 323 kts | 193° |
| 2026-05-03 20:47 | 48.27092 | 8.61125 | 22487 ft | 320 kts | 193° |
| 2026-05-03 20:48 | 48.24930 | 8.60478 | 22156 ft | 319 kts | 193° |
| 2026-05-03 20:48 | 48.22731 | 8.59820 | 21802 ft | 324 kts | 193° |
| 2026-05-03 20:48 | 48.20498 | 8.59153 | 21454 ft | 328 kts | 193° |
| 2026-05-03 20:48 | 48.18255 | 8.58484 | 21108 ft | 328 kts | 193° |
| 2026-05-03 20:49 | 48.16014 | 8.57815 | 20728 ft | 328 kts | 193° |
| 2026-05-03 20:49 | 48.13775 | 8.57147 | 20360 ft | 326 kts | 193° |
| 2026-05-03 20:49 | 48.11556 | 8.56485 | 20025 ft | 323 kts | 193° |
| 2026-05-03 20:49 | 48.09358 | 8.55830 | 19693 ft | 321 kts | 193° |
| 2026-05-03 20:50 | 48.07197 | 8.55187 | 19350 ft | 318 kts | 193° |
| 2026-05-03 20:50 | 48.05023 | 8.54540 | 19029 ft | 316 kts | 194° |
| 2026-05-03 20:50 | 48.02873 | 8.53901 | 18699 ft | 314 kts | 194° |
| 2026-05-03 20:50 | 48.00740 | 8.53268 | 18366 ft | 313 kts | 194° |
| 2026-05-03 20:51 | 47.98612 | 8.52637 | 17998 ft | 311 kts | 194° |
| 2026-05-03 20:51 | 47.96498 | 8.52010 | 17647 ft | 309 kts | 194° |
| 2026-05-03 20:51 | 47.94377 | 8.51591 | 17270 ft | 310 kts | 180° |
| 2026-05-03 20:51 | 47.92247 | 8.52113 | 16964 ft | 308 kts | 172° |
| 2026-05-03 20:52 | 47.90179 | 8.52714 | 16666 ft | 305 kts | 172° |
| 2026-05-03 20:52 | 47.88098 | 8.53336 | 16355 ft | 307 kts | 172° |
| 2026-05-03 20:52 | 47.85988 | 8.53980 | 15998 ft | 312 kts | 171° |
| 2026-05-03 20:52 | 47.83861 | 8.54638 | 15679 ft | 312 kts | 171° |
| 2026-05-03 20:53 | 47.81728 | 8.55301 | 15353 ft | 311 kts | 171° |
| 2026-05-03 20:53 | 47.79618 | 8.55960 | 14991 ft | 310 kts | 171° |
| 2026-05-03 20:53 | 47.77506 | 8.56619 | 14643 ft | 308 kts | 171° |
| 2026-05-03 20:53 | 47.75428 | 8.57267 | 14350 ft | 306 kts | 171° |
| 2026-05-03 20:54 | 47.73355 | 8.57914 | 14034 ft | 303 kts | 171° |
| 2026-05-03 20:54 | 47.69266 | 8.59224 | 13368 ft | 300 kts | 166° |
| 2026-05-03 20:54 | 47.67420 | 8.60730 | 13005 ft | 304 kts | 141° |
| 2026-05-03 20:55 | 47.66037 | 8.63035 | 12735 ft | 302 kts | 132° |
| 2026-05-03 20:55 | 47.64707 | 8.65420 | 12458 ft | 298 kts | 132° |
| 2026-05-03 20:55 | 47.63399 | 8.67784 | 12176 ft | 295 kts | 132° |
| 2026-05-03 20:55 | 47.62106 | 8.70134 | 11873 ft | 292 kts | 132° |
| 2026-05-03 20:56 | 47.60826 | 8.72465 | 11583 ft | 290 kts | 132° |
| 2026-05-03 20:56 | 47.59561 | 8.74775 | 11299 ft | 288 kts | 132° |
| 2026-05-03 20:56 | 47.58287 | 8.77098 | 11005 ft | 292 kts | 132° |
| 2026-05-03 20:56 | 47.56996 | 8.79453 | 10711 ft | 296 kts | 132° |
| 2026-05-03 20:57 | 47.55852 | 8.81972 | 10396 ft | 300 kts | 115° |
| 2026-05-03 20:57 | 47.55403 | 8.84983 | 10193 ft | 298 kts | 99° |
| 2026-05-03 20:57 | 47.55167 | 8.87949 | 10096 ft | 288 kts | 100° |
| 2026-05-03 20:57 | 47.54937 | 8.90861 | 9867 ft | 284 kts | 100° |
| 2026-05-03 20:58 | 47.54714 | 8.93769 | 9547 ft | 282 kts | 100° |
| 2026-05-03 20:58 | 47.54497 | 8.96652 | 9207 ft | 282 kts | 99° |
| 2026-05-03 20:58 | 47.54280 | 8.99543 | 8873 ft | 281 kts | 99° |
| 2026-05-03 20:58 | 47.53750 | 9.02274 | 8548 ft | 273 kts | 123° |
| 2026-05-03 20:59 | 47.52507 | 9.04309 | 8271 ft | 264 kts | 148° |
| 2026-05-03 20:59 | 47.50873 | 9.05332 | 8017 ft | 257 kts | 171° |
| 2026-05-03 20:59 | 47.49113 | 9.05433 | 7776 ft | 251 kts | 183° |
| 2026-05-03 20:59 | 47.47375 | 9.05276 | 7514 ft | 249 kts | 184° |
| 2026-05-03 21:00 | 47.45661 | 9.05012 | 7236 ft | 247 kts | 194° |
| 2026-05-03 21:00 | 47.44585 | 9.04378 | 7002 ft | 248 kts | 211° |
| 2026-05-03 21:00 | 47.43084 | 9.01852 | 6587 ft | 256 kts | 245° |
| 2026-05-03 21:00 | 47.42728 | 8.99298 | 6381 ft | 254 kts | 269° |
| 2026-05-03 21:01 | 47.42852 | 8.96733 | 6271 ft | 245 kts | 273° |
| 2026-05-03 21:01 | 47.43003 | 8.94268 | 6150 ft | 237 kts | 274° |
| 2026-05-03 21:01 | 47.43166 | 8.91888 | 6016 ft | 230 kts | 275° |
| 2026-05-03 21:01 | 47.43342 | 8.89560 | 5859 ft | 229 kts | 275° |
| 2026-05-03 21:02 | 47.43516 | 8.87203 | 5731 ft | 232 kts | 275° |
| 2026-05-03 21:02 | 47.43687 | 8.84826 | 5486 ft | 233 kts | 275° |
| 2026-05-03 21:02 | 47.43858 | 8.82437 | 5160 ft | 234 kts | 275° |
| 2026-05-03 21:02 | 47.44029 | 8.80056 | 4823 ft | 230 kts | 275° |
| 2026-05-03 21:03 | 47.44193 | 8.77722 | 4475 ft | 226 kts | 276° |
| 2026-05-03 21:03 | 47.44352 | 8.75484 | 4190 ft | 206 kts | 275° |
| 2026-05-03 21:03 | 47.44492 | 8.73509 | 3877 ft | 182 kts | 275° |
| 2026-05-03 21:03 | 47.44616 | 8.71749 | 3652 ft | 163 kts | 275° |
| 2026-05-03 21:04 | 47.44736 | 8.70121 | 3399 ft | 160 kts | 277° |
| 2026-05-03 21:04 | 47.44877 | 8.68480 | 3143 ft | 158 kts | 276° |
| 2026-05-03 21:04 | 47.44991 | 8.66901 | 2900 ft | 156 kts | 275° |
| 2026-05-03 21:04 | 47.45092 | 8.65303 | 2662 ft | 156 kts | 275° |
| 2026-05-03 21:05 | 47.45196 | 8.63703 | 2442 ft | 156 kts | 275° |
| 2026-05-03 21:05 | 47.45307 | 8.62096 | 2201 ft | 157 kts | 276° |
| 2026-05-03 21:05 | 47.45419 | 8.60487 | 1971 ft | 158 kts | 275° |
| 2026-05-03 21:05 | 47.45527 | 8.58875 | 1736 ft | 158 kts | 276° |
| 2026-05-03 21:06 | 47.45645 | 8.57251 | 1501 ft | 158 kts | 276° |
| 2026-05-03 21:06 | 47.45756 | 8.55716 | 1400 ft | 137 kts | 276° |
| 2026-05-03 21:06 | 47.45825 | 8.54676 | 1403 ft | 62 kts | 271° |
| 2026-05-03 21:06 | 47.45774 | 8.54329 | 1407 ft | 23 kts | 245° |
| 2026-05-03 21:07 | 47.45692 | 8.54204 | 1398 ft | 18 kts | 188° |
| 2026-05-03 21:07 | 47.45600 | 8.54329 | 1397 ft | 21 kts | 106° |
| 2026-05-03 21:07 | 47.45555 | 8.54538 | 1400 ft | 22 kts | 108° |
| 2026-05-03 21:07 | 47.45510 | 8.54744 | 1404 ft | 19 kts | 108° |
| 2026-05-03 21:08 | 47.45486 | 8.54845 | 1406 ft | 6 kts | 110° |
| 2026-05-03 21:08 | 47.45471 | 8.54911 | 1406 ft | 7 kts | 109° |
| 2026-05-03 21:08 | 47.45451 | 8.54993 | 1407 ft | 11 kts | 109° |
| 2026-05-03 21:08 | 47.45420 | 8.55127 | 1405 ft | 16 kts | 110° |
| 2026-05-03 21:09 | 47.45389 | 8.55248 | 1405 ft | 11 kts | 112° |
| 2026-05-03 21:09 | 47.45393 | 8.55345 | 1405 ft | 12 kts | 43° |
| 2026-05-03 21:09 | 47.45482 | 8.55422 | 1404 ft | 14 kts | 26° |
| 2026-05-03 21:09 | 47.45524 | 8.55495 | 1404 ft | 10 kts | 83° |
| 2026-05-03 21:10 | 47.45518 | 8.55606 | 1404 ft | 12 kts | 97° |
| 2026-05-03 21:10 | 47.45495 | 8.55649 | 1408 ft | 2 kts | 179° |
| 2026-05-03 21:10 | 47.45480 | 8.55643 | 1407 ft | 6 kts | 192° |
| 2026-05-03 21:10 | 47.45446 | 8.55636 | 1401 ft | 4 kts | 187° |
| 2026-05-03 21:11 | 47.45434 | 8.55634 | 1399 ft | 0 kts | 185° |